Time;durP1;ratioP1;P1;durP2;ratioP2;P2;SDS_P1;SDS_P2;PMS_P1;PMS_P2;Temp;Humidity;BMP_temperature;BMP_pressure;BME280_temperature;BME280_humidity;BME280_pressure;Samples;Min_cycle;Max_cycle;Signal;HPM_P1;HPM_P2
2023/01/28 00:00:08;;;;;;;1.13;0.67;;;;;;;;;;5027786;28;20036;-69
2023/01/28 00:02:37;;;;;;;0.90;0.50;;;;;;;;;;5033441;28;20480;-69
2023/01/28 00:05:04;;;;;;;0.60;0.50;;;;;;;;;;5032795;28;20024;-68
2023/01/28 00:07:31;;;;;;;0.70;0.53;;;;;;;;;;5033322;28;20018;-70
2023/01/28 00:09:57;;;;;;;0.40;0.40;;;;;;;;;;5033115;28;20030;-69
2023/01/28 00:12:25;;;;;;;6.10;1.03;;;;;;;;;;5032938;28;20022;-68
2023/01/28 00:14:51;;;;;;;2.07;0.90;;;;;;;;;;5027616;28;20030;-67
2023/01/28 00:17:18;;;;;;;10.17;1.27;;;;;;;;;;5027892;28;20423;-68
2023/01/28 00:19:45;;;;;;;7.73;1.20;;;;;;;;;;5044814;28;20021;-68
2023/01/28 00:22:12;;;;;;;4.33;1.20;;;;;;;;;;5047418;28;20021;-69
2023/01/28 00:24:38;;;;;;;10.77;1.13;;;;;;;;;;5052319;28;20036;-69
2023/01/28 00:27:05;;;;;;;0.87;0.67;;;;;;;;;;5053027;28;20480;-69
2023/01/28 00:29:32;;;;;;;0.90;0.80;;;;;;;;;;5052678;28;20487;-69
2023/01/28 00:31:58;;;;;;;0.90;0.80;;;;;;;;;;5036338;28;20056;-66
2023/01/28 00:34:25;;;;;;;4.63;1.10;;;;;;;;;;5032924;28;20025;-68
2023/01/28 00:37:00;;;;;;;1.37;0.70;;;;;;;;;;5027874;28;20490;-68
2023/01/28 00:39:27;;;;;;;1.47;1.00;;;;;;;;;;5027589;28;20380;-70
2023/01/28 00:41:54;;;;;;;2.30;1.00;;;;;;;;;;5027596;28;20425;-70
2023/01/28 00:44:21;;;;;;;12.73;1.17;;;;;;;;;;5027612;28;20056;-69
2023/01/28 00:46:48;;;;;;;3.93;1.60;;;;;;;;;;5031353;28;20392;-66
2023/01/28 00:49:14;;;;;;;3.03;1.63;;;;;;;;;;5032228;28;20052;-70
2023/01/28 00:51:41;;;;;;;1.27;0.60;;;;;;;;;;5032452;28;20167;-69
2023/01/28 00:54:08;;;;;;;1.27;0.73;;;;;;;;;;5032444;28;20036;-66
2023/01/28 00:56:35;;;;;;;4.27;0.90;;;;;;;;;;5032050;28;20472;-66
2023/01/28 00:59:02;;;;;;;0.73;0.67;;;;;;;;;;5027956;28;20480;-68
2023/01/28 01:01:29;;;;;;;0.87;0.60;;;;;;;;;;5027362;28;20033;-68
2023/01/28 01:04:02;;;;;;;2.37;0.90;;;;;;;;;;5027054;28;20083;-69
2023/01/28 01:06:34;;;;;;;2.20;1.50;;;;;;;;;;5027026;28;20025;-67
2023/01/28 01:09:02;;;;;;;4.10;1.00;;;;;;;;;;5031309;28;20372;-67
2023/01/28 01:11:28;;;;;;;1.83;1.30;;;;;;;;;;5031790;28;20033;-66
2023/01/28 01:13:56;;;;;;;2.07;0.73;;;;;;;;;;5031777;28;20030;-68
2023/01/28 01:16:28;;;;;;;10.40;1.30;;;;;;;;;;5032399;28;20069;-69
2023/01/28 01:18:55;;;;;;;2.47;1.63;;;;;;;;;;5042217;28;20371;-69
2023/01/28 01:21:24;;;;;;;4.80;2.23;;;;;;;;;;5047512;28;20029;-69
2023/01/28 01:23:50;;;;;;;4.37;2.63;;;;;;;;;;5046851;28;20028;-69
2023/01/28 01:26:17;;;;;;;2.80;1.90;;;;;;;;;;5046600;28;20096;-69
2023/01/28 01:28:44;;;;;;;5.70;2.03;;;;;;;;;;5032825;28;20091;-71
2023/01/28 01:31:13;;;;;;;3.93;2.50;;;;;;;;;;5029755;28;20446;-68
2023/01/28 01:33:41;;;;;;;1.97;1.47;;;;;;;;;;5032184;28;20415;-69
2023/01/28 01:36:08;;;;;;;4.00;2.03;;;;;;;;;;5032191;28;20123;-68
2023/01/28 01:38:35;;;;;;;10.70;1.70;;;;;;;;;;5032015;28;20117;-69
2023/01/28 01:41:02;;;;;;;2.80;1.33;;;;;;;;;;5030490;28;20365;-69
2023/01/28 01:43:49;;;;;;;2.67;1.60;;;;;;;;;;5029554;28;20057;-69
2023/01/28 01:46:18;;;;;;;1.87;1.23;;;;;;;;;;5030357;28;20361;-68
2023/01/28 01:48:46;;;;;;;3.67;1.43;;;;;;;;;;5030635;28;20040;-67
2023/01/28 01:51:17;;;;;;;2.40;1.63;;;;;;;;;;5030822;28;20030;-69
2023/01/28 01:53:46;;;;;;;1.83;1.37;;;;;;;;;;5034926;28;20075;-67
2023/01/28 01:56:15;;;;;;;4.23;1.40;;;;;;;;;;5035502;28;20430;-68
2023/01/28 01:58:44;;;;;;;2.90;1.53;;;;;;;;;;5035673;28;20141;-68
2023/01/28 02:01:11;;;;;;;1.47;0.90;;;;;;;;;;5035448;28;20031;-69
2023/01/28 02:03:47;;;;;;;1.30;0.97;;;;;;;;;;5035375;28;20112;-69
2023/01/28 02:06:14;;;;;;;3.03;2.30;;;;;;;;;;5030071;28;20032;-69
2023/01/28 02:08:41;;;;;;;4.07;2.37;;;;;;;;;;5030640;28;20025;-69
2023/01/28 02:11:10;;;;;;;3.17;2.23;;;;;;;;;;5030360;28;20041;-71
2023/01/28 02:13:39;;;;;;;1.63;1.00;;;;;;;;;;5030262;28;20222;-69
2023/01/28 02:16:07;;;;;;;2.10;1.50;;;;;;;;;;5034473;28;20021;-69
2023/01/28 02:18:34;;;;;;;1.40;1.00;;;;;;;;;;5042250;28;20025;-69
2023/01/28 02:21:10;;;;;;;6.33;1.30;;;;;;;;;;5055172;28;20021;-69
2023/01/28 02:23:44;;;;;;;5.40;1.63;;;;;;;;;;5055212;28;20462;-69
2023/01/28 02:26:14;;;;;;;1.17;0.85;;;;;;;;;;5055067;28;20029;-69
2023/01/28 02:28:48;;;;;;;4.43;1.73;;;;;;;;;;5049960;28;20177;-69
2023/01/28 02:31:27;;;;;;;8.45;1.80;;;;;;;;;;5046700;28;20037;-69
2023/01/28 02:34:07;;;;;;;3.60;1.80;;;;;;;;;;5029701;28;20029;-69
2023/01/28 02:36:49;;;;;;;1.13;0.73;;;;;;;;;;5030451;28;20061;-69
2023/01/28 02:39:21;;;;;;;2.57;0.83;;;;;;;;;;5034929;28;20025;-69
2023/01/28 02:42:00;;;;;;;1.33;0.83;;;;;;;;;;5034469;28;20075;-69
2023/01/28 02:44:27;;;;;;;2.93;0.80;;;;;;;;;;5034945;28;20034;-69
2023/01/28 02:49:51;;;;;;;17.17;1.02;;;;;;;;;;5011908;28;20057;-69
2023/01/28 02:53:39;;;;;;;1.60;0.87;;;;;;;;;;5009828;28;20034;-68
2023/01/28 02:55:17;;;;;;;3.10;1.43;;;;;;;;;;5012479;28;20045;-68
2023/01/28 02:57:47;;;;;;;1.73;1.20;;;;;;;;;;5029197;28;20461;-69
2023/01/28 03:00:33;;;;;;;2.23;1.43;;;;;;;;;;5032743;28;20021;-68
2023/01/28 03:03:08;;;;;;;4.87;2.53;;;;;;;;;;5034567;28;20018;-68
2023/01/28 03:06:02;;;;;;;2.53;1.58;;;;;;;;;;5034018;28;20021;-68
2023/01/28 03:39:12;;;;;;;8.83;1.43;;;;;;;;;;5028373;28;20319;-68
2023/01/28 03:41:40;;;;;;;2.50;1.63;;;;;;;;;;5027570;28;20029;-66
2023/01/28 03:46:52;;;;;;;15.30;1.80;;;;;;;;;;5033941;28;20220;-67
2023/01/28 03:49:19;;;;;;;4.40;1.60;;;;;;;;;;5033231;28;20026;-66
2023/01/28 03:51:46;;;;;;;7.10;1.87;;;;;;;;;;5033535;28;20034;-67
2023/01/28 03:54:14;;;;;;;6.83;1.83;;;;;;;;;;5033484;28;20036;-67
2023/01/28 03:56:40;;;;;;;1.83;1.30;;;;;;;;;;5030633;28;20040;-66
2023/01/28 03:59:07;;;;;;;2.10;1.00;;;;;;;;;;5028011;28;20041;-66
2023/01/28 04:01:35;;;;;;;2.10;1.37;;;;;;;;;;5027993;28;20446;-67
2023/01/28 04:04:01;;;;;;;1.67;1.20;;;;;;;;;;5027882;28;20112;-66
2023/01/28 04:06:28;;;;;;;3.37;1.30;;;;;;;;;;5029461;28;20379;-64
2023/01/28 04:08:58;;;;;;;5.13;1.67;;;;;;;;;;5033361;28;20022;-65
2023/01/28 04:11:25;;;;;;;2.73;1.27;;;;;;;;;;5033103;28;20029;-65
2023/01/28 04:13:52;;;;;;;1.60;0.93;;;;;;;;;;5032663;28;20021;-68
2023/01/28 04:16:20;;;;;;;1.73;1.03;;;;;;;;;;5032668;28;20057;-69
2023/01/28 04:18:47;;;;;;;10.13;1.50;;;;;;;;;;5039126;28;20395;-69
2023/01/28 04:21:14;;;;;;;1.40;1.00;;;;;;;;;;5047817;28;20033;-66
2023/01/28 04:23:41;;;;;;;0.87;0.70;;;;;;;;;;5047736;28;20036;-66
2023/01/28 04:26:07;;;;;;;2.40;1.27;;;;;;;;;;5047860;28;20033;-65
2023/01/28 04:28:34;;;;;;;2.83;1.50;;;;;;;;;;5049329;28;20036;-65
2023/01/28 04:31:01;;;;;;;12.07;1.50;;;;;;;;;;5052666;28;20029;-65
2023/01/28 04:33:28;;;;;;;2.23;1.23;;;;;;;;;;5036183;28;20037;-65
2023/01/28 04:35:54;;;;;;;2.70;1.53;;;;;;;;;;5032948;28;20106;-68
2023/01/28 04:38:21;;;;;;;2.73;1.77;;;;;;;;;;5032957;28;20072;-66
2023/01/28 04:40:51;;;;;;;7.63;2.50;;;;;;;;;;5030908;28;20025;-65
2023/01/28 04:43:18;;;;;;;1.70;1.23;;;;;;;;;;5027254;28;20388;-66
2023/01/28 04:45:46;;;;;;;2.73;1.37;;;;;;;;;;5027520;28;20416;-69
2023/01/28 04:48:14;;;;;;;1.07;0.80;;;;;;;;;;5026797;28;20376;-66
2023/01/28 04:50:41;;;;;;;11.10;1.53;;;;;;;;;;5008887;28;20112;-66
2023/01/28 04:53:09;;;;;;;3.03;1.30;;;;;;;;;;5012909;28;20451;-66
2023/01/28 04:55:36;;;;;;;1.10;0.70;;;;;;;;;;5012833;28;20370;-65
2023/01/28 04:58:02;;;;;;;3.10;2.20;;;;;;;;;;5012814;28;20096;-65
2023/01/28 05:00:29;;;;;;;2.57;1.67;;;;;;;;;;5016302;28;20108;-65
2023/01/28 05:02:56;;;;;;;1.17;0.57;;;;;;;;;;5031140;28;20444;-66
2023/01/28 05:05:23;;;;;;;2.60;1.73;;;;;;;;;;5026742;28;20024;-67
2023/01/28 05:07:54;;;;;;;0.87;0.77;;;;;;;;;;5027179;28;20049;-65
2023/01/28 05:10:21;;;;;;;2.23;1.37;;;;;;;;;;5027103;28;20033;-65
2023/01/28 05:12:48;;;;;;;1.27;1.10;;;;;;;;;;5027700;28;20018;-66
2023/01/28 05:15:16;;;;;;;6.07;2.57;;;;;;;;;;5031929;28;20022;-68
2023/01/28 05:17:43;;;;;;;4.43;2.43;;;;;;;;;;5031351;28;20022;-67
2023/01/28 05:20:11;;;;;;;2.63;1.20;;;;;;;;;;5051705;28;20035;-65
2023/01/28 05:22:38;;;;;;;0.77;0.70;;;;;;;;;;5052083;28;20025;-65
2023/01/28 05:25:06;;;;;;;2.40;1.90;;;;;;;;;;5051195;28;20549;-65
2023/01/28 05:27:33;;;;;;;2.33;1.67;;;;;;;;;;5046917;28;20059;-64
2023/01/28 05:30:00;;;;;;;2.47;1.10;;;;;;;;;;5046945;28;20029;-65
2023/01/28 05:32:27;;;;;;;2.57;1.70;;;;;;;;;;5028254;28;20472;-66
2023/01/28 05:34:54;;;;;;;1.03;0.93;;;;;;;;;;5027098;28;20124;-66
2023/01/28 05:37:21;;;;;;;2.63;1.17;;;;;;;;;;5031527;28;20096;-66
2023/01/28 05:39:47;;;;;;;3.67;1.57;;;;;;;;;;5032067;28;20539;-66
2023/01/28 05:42:14;;;;;;;3.43;1.87;;;;;;;;;;5032089;28;20380;-65
2023/01/28 05:44:42;;;;;;;6.63;1.90;;;;;;;;;;5032030;28;20455;-64
2023/01/28 05:47:08;;;;;;;6.40;1.80;;;;;;;;;;5031415;28;20358;-64
2023/01/28 05:49:35;;;;;;;2.70;1.57;;;;;;;;;;5026784;28;20071;-66
2023/01/28 05:52:02;;;;;;;1.40;1.30;;;;;;;;;;5026851;28;20116;-65
2023/01/28 05:54:29;;;;;;;4.40;1.40;;;;;;;;;;5026820;28;20018;-65
2023/01/28 05:56:56;;;;;;;0.77;0.60;;;;;;;;;;5026476;28;20029;-65
2023/01/28 05:59:22;;;;;;;4.33;1.33;;;;;;;;;;5031497;28;20026;-65
2023/01/28 06:01:49;;;;;;;4.67;1.87;;;;;;;;;;5031578;28;20093;-64
2023/01/28 06:04:17;;;;;;;1.93;1.37;;;;;;;;;;5031868;28;20052;-66
2023/01/28 06:06:44;;;;;;;4.13;2.00;;;;;;;;;;5031465;28;20034;-65
2023/01/28 06:09:11;;;;;;;1.33;1.00;;;;;;;;;;5031856;28;20345;-66
2023/01/28 06:11:38;;;;;;;2.77;1.83;;;;;;;;;;5026372;28;20107;-64
2023/01/28 06:14:05;;;;;;;1.93;1.47;;;;;;;;;;5026033;28;20055;-64
2023/01/28 06:16:31;;;;;;;2.83;1.10;;;;;;;;;;5026512;28;20032;-64
2023/01/28 06:18:58;;;;;;;9.67;2.10;;;;;;;;;;5036911;28;20048;-64
2023/01/28 06:21:25;;;;;;;3.30;1.23;;;;;;;;;;5050580;28;20033;-64
2023/01/28 06:23:52;;;;;;;1.80;1.30;;;;;;;;;;5051603;28;20036;-64
2023/01/28 06:26:19;;;;;;;1.30;1.03;;;;;;;;;;5047612;28;20032;-64
2023/01/28 06:28:46;;;;;;;1.27;0.90;;;;;;;;;;5032498;28;20025;-64
2023/01/28 06:31:12;;;;;;;2.90;1.53;;;;;;;;;;5034573;28;20099;-65
2023/01/28 06:33:39;;;;;;;1.43;0.90;;;;;;;;;;5030937;28;20495;-65
2023/01/28 06:36:06;;;;;;;1.40;0.97;;;;;;;;;;5029942;28;20032;-65
2023/01/28 06:38:33;;;;;;;5.60;2.50;;;;;;;;;;5022478;28;20037;-64
2023/01/28 06:41:00;;;;;;;1.77;1.20;;;;;;;;;;5010630;28;20380;-64
2023/01/28 06:43:29;;;;;;;2.27;1.40;;;;;;;;;;5033189;28;20025;-64
2023/01/28 06:45:56;;;;;;;1.73;1.00;;;;;;;;;;5034567;28;20507;-64
2023/01/28 06:48:23;;;;;;;2.43;1.47;;;;;;;;;;5034581;28;20020;-64
2023/01/28 06:50:50;;;;;;;1.93;1.20;;;;;;;;;;5034864;28;20498;-64
2023/01/28 06:53:17;;;;;;;2.40;1.60;;;;;;;;;;5034737;28;20392;-64
2023/01/28 06:55:44;;;;;;;1.30;0.93;;;;;;;;;;5030879;28;20018;-64
2023/01/28 06:58:11;;;;;;;10.33;1.97;;;;;;;;;;5029280;28;20060;-64
2023/01/28 07:00:37;;;;;;;1.17;0.90;;;;;;;;;;5029349;28;20032;-64
2023/01/28 07:03:05;;;;;;;1.60;1.17;;;;;;;;;;5029144;28;20107;-64
2023/01/28 07:05:32;;;;;;;3.50;1.27;;;;;;;;;;5032051;28;20101;-65
2023/01/28 07:07:59;;;;;;;2.17;1.10;;;;;;;;;;5034630;28;20018;-64
2023/01/28 07:10:25;;;;;;;1.70;1.33;;;;;;;;;;5034321;28;20435;-64
2023/01/28 07:12:52;;;;;;;2.03;1.23;;;;;;;;;;5034188;28;20026;-64
2023/01/28 07:15:19;;;;;;;1.60;1.13;;;;;;;;;;5034331;28;20025;-64
2023/01/28 07:17:45;;;;;;;1.47;0.97;;;;;;;;;;5031093;28;20025;-64
2023/01/28 07:20:14;;;;;;;1.33;0.80;;;;;;;;;;5028911;28;20030;-64
2023/01/28 07:22:41;;;;;;;2.47;1.40;;;;;;;;;;5028672;28;20069;-64
2023/01/28 07:25:08;;;;;;;3.30;1.17;;;;;;;;;;5028866;28;20056;-64
2023/01/28 07:27:35;;;;;;;2.60;1.20;;;;;;;;;;5031320;28;20030;-64
2023/01/28 07:30:02;;;;;;;2.33;1.33;;;;;;;;;;5033624;28;20033;-64
2023/01/28 07:32:28;;;;;;;1.40;1.00;;;;;;;;;;5034088;28;20080;-65
2023/01/28 07:34:55;;;;;;;0.97;0.60;;;;;;;;;;5033420;28;20026;-64
2023/01/28 07:37:22;;;;;;;1.23;0.93;;;;;;;;;;5033958;28;20108;-65
2023/01/28 07:39:49;;;;;;;0.63;0.63;;;;;;;;;;5030620;28;20255;-64
2023/01/28 07:42:16;;;;;;;1.23;0.87;;;;;;;;;;5028412;28;20044;-64
2023/01/28 07:44:43;;;;;;;13.80;1.57;;;;;;;;;;5028174;28;20361;-64
2023/01/28 07:47:10;;;;;;;2.07;1.20;;;;;;;;;;5028449;28;20100;-64
2023/01/28 07:49:38;;;;;;;5.33;2.03;;;;;;;;;;5030667;28;20059;-64
2023/01/28 07:52:05;;;;;;;1.93;1.13;;;;;;;;;;5033357;28;20033;-64
2023/01/28 07:54:32;;;;;;;1.23;0.80;;;;;;;;;;5033666;28;20033;-64
2023/01/28 07:56:59;;;;;;;1.07;0.87;;;;;;;;;;5033297;28;20381;-64
2023/01/28 07:59:25;;;;;;;2.40;1.10;;;;;;;;;;5033554;28;20037;-64
2023/01/28 08:01:55;;;;;;;0.80;0.70;;;;;;;;;;5030630;28;20025;-64
2023/01/28 08:04:22;;;;;;;7.50;2.77;;;;;;;;;;5028268;28;20038;-64
2023/01/28 08:06:51;;;;;;;1.13;0.63;;;;;;;;;;5027654;28;20261;-64
2023/01/28 08:09:17;;;;;;;1.33;0.93;;;;;;;;;;5028049;28;20664;-64
2023/01/28 08:11:46;;;;;;;11.10;1.53;;;;;;;;;;5029764;28;20689;-63
2023/01/28 08:14:13;;;;;;;0.80;0.67;;;;;;;;;;5033030;28;20724;-64
2023/01/28 08:16:39;;;;;;;1.70;1.13;;;;;;;;;;5032998;28;20258;-63
2023/01/28 08:19:06;;;;;;;1.73;1.13;;;;;;;;;;5033042;28;20257;-63
2023/01/28 08:21:33;;;;;;;1.40;1.07;;;;;;;;;;5032730;28;20247;-63
2023/01/28 08:23:59;;;;;;;1.57;1.10;;;;;;;;;;5030691;28;20349;-64
2023/01/28 08:26:26;;;;;;;1.13;0.83;;;;;;;;;;5027929;28;20263;-64
2023/01/28 08:28:53;;;;;;;1.43;0.93;;;;;;;;;;5027757;28;20694;-63
2023/01/28 08:31:19;;;;;;;0.97;0.73;;;;;;;;;;5027168;28;20286;-64
2023/01/28 08:33:46;;;;;;;0.93;0.73;;;;;;;;;;5029106;28;20259;-63
2023/01/28 08:36:13;;;;;;;1.43;0.83;;;;;;;;;;5032834;28;20266;-63
2023/01/28 08:38:39;;;;;;;5.50;1.13;;;;;;;;;;5032428;28;20272;-63
2023/01/28 08:41:06;;;;;;;1.23;0.93;;;;;;;;;;5032415;28;20265;-64
2023/01/28 08:43:33;;;;;;;3.20;1.10;;;;;;;;;;5032612;28;20742;-63
2023/01/28 08:45:59;;;;;;;2.20;1.17;;;;;;;;;;5030691;28;20302;-64
2023/01/28 08:48:26;;;;;;;0.50;0.47;;;;;;;;;;5027156;28;20250;-64
2023/01/28 08:50:53;;;;;;;1.23;0.80;;;;;;;;;;5027257;28;20340;-64
2023/01/28 08:53:20;;;;;;;0.70;0.47;;;;;;;;;;5027088;28;20257;-63
2023/01/28 08:55:47;;;;;;;0.70;0.43;;;;;;;;;;5027665;28;20290;-64
2023/01/28 08:58:14;;;;;;;2.47;1.03;;;;;;;;;;5032500;28;20259;-63
2023/01/28 09:00:42;;;;;;;1.27;0.97;;;;;;;;;;5032446;28;20254;-63
2023/01/28 09:03:08;;;;;;;5.00;1.00;;;;;;;;;;5032575;28;20613;-63
2023/01/28 09:05:36;;;;;;;1.07;0.73;;;;;;;;;;5032217;28;20255;-63
2023/01/28 09:08:03;;;;;;;0.70;0.57;;;;;;;;;;5031025;28;20251;-63
2023/01/28 09:10:30;;;;;;;0.67;0.53;;;;;;;;;;5026424;28;20291;-63
2023/01/28 09:12:56;;;;;;;1.37;0.83;;;;;;;;;;5026866;28;20753;-64
2023/01/28 09:15:23;;;;;;;0.20;0.20;;;;;;;;;;5027070;28;20320;-63
2023/01/28 09:17:50;;;;;;;0.90;0.60;;;;;;;;;;5027460;28;20282;-63
2023/01/28 09:20:17;;;;;;;0.40;0.30;;;;;;;;;;5032294;28;20243;-64
2023/01/28 09:22:44;;;;;;;1.07;0.60;;;;;;;;;;5032135;28;20282;-63
2023/01/28 09:25:10;;;;;;;0.53;0.40;;;;;;;;;;5032007;28;20334;-64
2023/01/28 09:27:37;;;;;;;0.70;0.67;;;;;;;;;;5031828;28;20266;-64
2023/01/28 09:30:04;;;;;;;1.07;0.60;;;;;;;;;;5030921;28;20350;-63
2023/01/28 09:32:30;;;;;;;1.90;0.47;;;;;;;;;;5026730;28;20322;-64
2023/01/28 09:34:57;;;;;;;1.40;0.97;;;;;;;;;;5026943;28;20299;-63
2023/01/28 09:37:24;;;;;;;0.60;0.60;;;;;;;;;;5026891;28;20314;-63
2023/01/28 09:39:51;;;;;;;0.63;0.63;;;;;;;;;;5026814;28;20295;-63
2023/01/28 09:42:24;;;;;;;1.03;0.67;;;;;;;;;;5031510;28;20251;-64
2023/01/28 09:45:00;;;;;;;0.33;0.33;;;;;;;;;;5031593;28;20744;-64
2023/01/28 09:47:38;;;;;;;1.00;0.80;;;;;;;;;;5031965;28;20255;-64
2023/01/28 09:50:08;;;;;;;0.43;0.43;;;;;;;;;;5031788;28;20251;-64
2023/01/28 09:52:37;;;;;;;0.47;0.30;;;;;;;;;;5030058;28;20257;-64
2023/01/28 09:55:06;;;;;;;1.10;0.87;;;;;;;;;;5026472;28;20372;-63
2023/01/28 09:57:58;;;;;;;0.70;0.57;;;;;;;;;;5026591;28;20678;-64
2023/01/28 10:00:45;;;;;;;0.40;0.30;;;;;;;;;;5024260;28;20630;-64
2023/01/28 10:03:18;;;;;;;0.37;0.37;;;;;;;;;;5029415;28;20274;-64
2023/01/28 10:06:00;;;;;;;0.90;0.70;;;;;;;;;;5035641;28;20259;-63
2023/01/28 10:08:46;;;;;;;0.40;0.40;;;;;;;;;;5035095;28;20266;-63
2023/01/28 10:11:27;;;;;;;1.53;1.00;;;;;;;;;;5035531;28;20758;-63
2023/01/28 10:14:03;;;;;;;0.73;0.50;;;;;;;;;;5035546;28;20258;-63
2023/01/28 10:16:40;;;;;;;0.63;0.60;;;;;;;;;;5029887;28;20269;-63
2023/01/28 10:19:19;;;;;;;0.40;0.40;;;;;;;;;;5030179;28;20690;-63
2023/01/28 10:22:03;;;;;;;2.00;1.00;;;;;;;;;;5030106;28;20316;-63
2023/01/28 10:24:34;;;;;;;0.50;0.40;;;;;;;;;;5030745;28;21723;-63
2023/01/28 10:27:02;;;;;;;0.57;0.43;;;;;;;;;;5035446;28;20274;-64
2023/01/28 10:29:31;;;;;;;1.77;0.93;;;;;;;;;;5034869;28;20295;-64
2023/01/28 10:32:18;;;;;;;0.77;0.33;;;;;;;;;;5034759;28;20286;-63
2023/01/28 10:34:45;;;;;;;0.33;0.33;;;;;;;;;;5035151;28;20258;-63
2023/01/28 10:37:14;;;;;;;0.73;0.57;;;;;;;;;;5032983;28;20282;-64
2023/01/28 10:39:41;;;;;;;0.30;0.30;;;;;;;;;;5029722;28;20258;-63
2023/01/28 10:42:37;;;;;;;0.60;0.50;;;;;;;;;;5029707;28;20258;-63
2023/01/28 10:45:19;;;;;;;0.22;0.20;;;;;;;;;;5020597;28;20332;-63
2023/01/28 10:48:08;;;;;;;0.60;0.50;;;;;;;;;;5032149;28;20124;-63
2023/01/28 10:50:35;;;;;;;0.93;0.60;;;;;;;;;;5034619;28;20286;-63
2023/01/28 10:53:03;;;;;;;0.20;0.20;;;;;;;;;;5034699;28;20305;-64
2023/01/28 10:55:59;;;;;;;0.20;0.20;;;;;;;;;;5034648;28;20275;-63
2023/01/28 10:58:28;;;;;;;0.75;0.57;;;;;;;;;;5024940;28;20274;-63
2023/01/28 11:01:00;;;;;;;0.50;0.47;;;;;;;;;;5029534;28;20037;-63
2023/01/28 11:03:28;;;;;;;0.43;0.40;;;;;;;;;;5029385;28;20354;-63
2023/01/28 11:05:55;;;;;;;0.73;0.60;;;;;;;;;;5029335;28;20266;-64
2023/01/28 11:08:23;;;;;;;0.53;0.50;;;;;;;;;;5028710;28;20271;-64
2023/01/28 11:10:50;;;;;;;0.47;0.47;;;;;;;;;;5033985;28;20345;-63
2023/01/28 11:13:21;;;;;;;0.30;0.30;;;;;;;;;;5034181;28;20297;-63
2023/01/28 11:16:06;;;;;;;0.53;0.43;;;;;;;;;;5033064;28;20250;-64
2023/01/28 11:18:33;;;;;;;;;;;;;;;;;;5034857;28;20265;-63
2023/01/28 11:21:03;;;;;;;2.07;1.13;;;;;;;;;;5033794;28;19955;-65
2023/01/28 11:23:47;;;;;;;1.33;1.00;;;;;;;;;;5028677;28;20255;-64
2023/01/28 11:26:37;;;;;;;0.93;0.50;;;;;;;;;;5029194;28;20760;-63
2023/01/28 11:29:04;;;;;;;0.40;0.37;;;;;;;;;;5023641;28;20275;-63
2023/01/28 11:31:37;;;;;;;0.37;0.37;;;;;;;;;;5029576;28;20286;-63
2023/01/28 11:34:05;;;;;;;0.93;0.70;;;;;;;;;;5033966;28;20391;-63
2023/01/28 11:36:33;;;;;;;0.57;0.43;;;;;;;;;;5034032;28;20266;-64
2023/01/28 11:39:15;;;;;;;0.83;0.67;;;;;;;;;;5033543;28;20259;-63
2023/01/28 11:41:42;;;;;;;1.03;0.67;;;;;;;;;;5033798;28;20329;-63
2023/01/28 11:44:11;;;;;;;0.57;0.50;;;;;;;;;;5031189;28;20525;-63
2023/01/28 11:46:47;;;;;;;0.90;0.67;;;;;;;;;;5028544;28;20637;-63
2023/01/28 11:49:17;;;;;;;0.50;0.50;;;;;;;;;;5028519;28;20262;-63
2023/01/28 11:51:52;;;;;;;0.70;0.50;;;;;;;;;;5028419;28;20321;-63
2023/01/28 11:54:24;;;;;;;1.65;1.02;;;;;;;;;;5030744;28;20763;-63
2023/01/28 11:57:06;;;;;;;0.20;0.20;;;;;;;;;;5033196;28;20112;-63
2023/01/28 11:59:42;;;;;;;0.73;0.60;;;;;;;;;;5033473;28;20618;-63
2023/01/28 12:02:24;;;;;;;0.83;0.70;;;;;;;;;;5032975;28;20263;-63
2023/01/28 12:04:54;;;;;;;1.83;1.27;;;;;;;;;;5033418;28;20258;-63
2023/01/28 12:07:32;;;;;;;0.40;0.40;;;;;;;;;;5028782;28;20250;-64
2023/01/28 12:10:02;;;;;;;0.43;0.30;;;;;;;;;;5028031;28;20263;-63
2023/01/28 12:12:32;;;;;;;0.40;0.40;;;;;;;;;;5027654;28;20263;-64
2023/01/28 12:15:17;;;;;;;0.47;0.43;;;;;;;;;;5027929;28;20262;-63
2023/01/28 12:18:02;;;;;;;0.45;0.35;;;;;;;;;;5033108;28;20269;-63
2023/01/28 12:20:37;;;;;;;0.73;0.47;;;;;;;;;;5033271;28;20079;-63
2023/01/28 12:23:09;;;;;;;1.33;0.60;;;;;;;;;;5033072;28;20047;-63
2023/01/28 12:25:39;;;;;;;1.30;0.80;;;;;;;;;;5033172;28;20258;-63
2023/01/28 12:28:06;;;;;;;0.20;0.20;;;;;;;;;;5031629;28;20262;-64
2023/01/28 12:30:42;;;;;;;0.30;0.30;;;;;;;;;;5026849;28;20286;-63
2023/01/28 12:33:21;;;;;;;0.33;0.33;;;;;;;;;;5027619;28;20352;-63
2023/01/28 12:35:50;;;;;;;0.30;0.30;;;;;;;;;;5027689;28;20254;-63
2023/01/28 12:38:17;;;;;;;0.40;0.40;;;;;;;;;;5028895;28;20262;-64
2023/01/28 12:40:43;;;;;;;0.83;0.70;;;;;;;;;;5032516;28;20259;-63
2023/01/28 12:43:18;;;;;;;0.40;0.30;;;;;;;;;;5032721;28;20254;-63
2023/01/28 12:45:47;;;;;;;0.35;0.30;;;;;;;;;;5032513;28;20265;-63
2023/01/28 12:48:24;;;;;;;0.20;0.20;;;;;;;;;;5032547;28;20492;-63
2023/01/28 12:50:54;;;;;;;0.40;0.40;;;;;;;;;;5030494;28;20685;-63
2023/01/28 12:53:31;;;;;;;0.20;0.20;;;;;;;;;;5027141;28;20271;-64
2023/01/28 12:56:07;;;;;;;1.17;0.60;;;;;;;;;;5027159;28;20591;-63
2023/01/28 12:58:43;;;;;;;0.60;0.47;;;;;;;;;;5027322;28;20590;-63
2023/01/28 13:01:12;;;;;;;3.67;0.83;;;;;;;;;;5029497;28;20251;-64
2023/01/28 13:03:51;;;;;;;1.50;0.93;;;;;;;;;;5032183;28;20654;-64
2023/01/28 13:06:44;;;;;;;0.63;0.50;;;;;;;;;;5032350;28;20250;-63
2023/01/28 13:09:13;;;;;;;3.73;1.10;;;;;;;;;;5029258;28;20313;-63
2023/01/28 13:11:40;;;;;;;0.57;0.47;;;;;;;;;;5032280;28;20389;-63
2023/01/28 13:14:07;;;;;;;8.20;1.60;;;;;;;;;;5027685;28;20848;-63
2023/01/28 13:16:34;;;;;;;2.47;1.77;;;;;;;;;;5027114;28;20282;-63
2023/01/28 13:19:27;;;;;;;5.10;3.40;;;;;;;;;;5027117;28;20380;-63
2023/01/28 13:21:53;;;;;;;6.27;2.27;;;;;;;;;;5024081;28;20293;-65
2023/01/28 13:24:22;;;;;;;4.30;2.30;;;;;;;;;;5031848;28;20247;-63
2023/01/28 13:26:52;;;;;;;3.27;1.60;;;;;;;;;;5032244;28;20745;-63
2023/01/28 13:29:21;;;;;;;3.90;2.60;;;;;;;;;;5032225;28;20250;-63
2023/01/28 13:31:49;;;;;;;1.30;0.90;;;;;;;;;;5031159;28;20294;-64
2023/01/28 13:34:28;;;;;;;3.67;2.73;;;;;;;;;;5032005;28;20338;-63
2023/01/28 13:36:56;;;;;;;2.20;1.47;;;;;;;;;;5026661;28;20271;-63
2023/01/28 13:39:25;;;;;;;1.97;1.17;;;;;;;;;;5028938;28;20426;-63
2023/01/28 13:41:55;;;;;;;4.93;1.47;;;;;;;;;;5030912;28;20266;-63
2023/01/28 13:44:25;;;;;;;1.33;0.80;;;;;;;;;;5030402;28;20255;-64
2023/01/28 13:46:52;;;;;;;1.00;0.87;;;;;;;;;;5035796;28;20711;-64
2023/01/28 13:49:26;;;;;;;1.70;0.97;;;;;;;;;;5036078;28;20733;-63
2023/01/28 13:52:08;;;;;;;2.20;1.30;;;;;;;;;;5035931;28;20757;-63
2023/01/28 13:54:36;;;;;;;2.40;1.50;;;;;;;;;;5035484;28;20255;-63
2023/01/28 13:57:12;;;;;;;1.13;0.87;;;;;;;;;;5034340;28;20324;-63
2023/01/28 13:59:42;;;;;;;1.13;1.03;;;;;;;;;;5030352;28;20266;-64
2023/01/28 14:02:32;;;;;;;1.57;1.10;;;;;;;;;;5030177;28;20345;-63
2023/01/28 14:05:15;;;;;;;2.87;1.63;;;;;;;;;;5024819;28;20279;-65
2023/01/28 14:07:52;;;;;;;3.07;1.27;;;;;;;;;;5033001;28;20337;-64
2023/01/28 14:10:18;;;;;;;2.00;1.33;;;;;;;;;;5035343;28;20352;-64
2023/01/28 14:12:57;;;;;;;1.60;1.00;;;;;;;;;;5034349;28;20254;-64
2023/01/28 14:15:44;;;;;;;0.63;0.60;;;;;;;;;;5035789;28;20309;-64
2023/01/28 14:18:25;;;;;;;5.13;1.30;;;;;;;;;;5035211;28;20021;-64
2023/01/28 14:20:53;;;;;;;3.03;0.97;;;;;;;;;;5030124;28;20030;-65
2023/01/28 14:23:21;;;;;;;0.43;0.43;;;;;;;;;;5030136;28;20507;-65
2023/01/28 14:25:47;;;;;;;1.00;0.80;;;;;;;;;;5029592;28;20419;-64
2023/01/28 14:28:18;;;;;;;1.27;1.00;;;;;;;;;;5029751;28;20380;-64
2023/01/28 14:30:53;;;;;;;1.10;0.80;;;;;;;;;;5034274;28;20033;-64
2023/01/28 14:33:21;;;;;;;1.70;0.93;;;;;;;;;;5035222;28;20029;-64
2023/01/28 14:35:49;;;;;;;3.13;1.20;;;;;;;;;;5034763;28;20424;-64
2023/01/28 14:38:20;;;;;;;0.40;0.40;;;;;;;;;;5035128;28;20017;-64
2023/01/28 14:40:49;;;;;;;2.03;0.97;;;;;;;;;;5035181;28;20014;-64
2023/01/28 14:56:17;;;;;;;4.10;1.60;;;;;;;;;;5063267;27;2113082;-62
2023/01/28 14:58:50;;;;;;;1.30;0.73;;;;;;;;;;5102972;28;20104;-62
2023/01/28 15:01:23;;;;;;;2.20;1.17;;;;;;;;;;5102773;28;20358;-62
2023/01/28 15:03:50;;;;;;;2.37;1.13;;;;;;;;;;5102839;28;20540;-62
2023/01/28 15:06:19;;;;;;;1.03;0.63;;;;;;;;;;5102948;28;20028;-62
2023/01/28 15:08:46;;;;;;;0.67;0.60;;;;;;;;;;5108511;28;20026;-62
2023/01/28 15:11:15;;;;;;;1.33;0.90;;;;;;;;;;5108983;28;20529;-62
2023/01/28 15:13:44;;;;;;;1.53;0.80;;;;;;;;;;5109088;28;20470;-62
2023/01/28 15:16:21;;;;;;;1.90;0.60;;;;;;;;;;5109701;28;20037;-62
2023/01/28 15:18:49;;;;;;;1.20;0.70;;;;;;;;;;5108257;28;20409;-63
2023/01/28 15:21:23;;;;;;;1.30;0.90;;;;;;;;;;5103959;28;20595;-62
2023/01/28 15:23:52;;;;;;;7.23;1.17;;;;;;;;;;5103575;28;20027;-63
2023/01/28 15:26:23;;;;;;;1.27;0.77;;;;;;;;;;5104006;28;20030;-62
2023/01/28 15:28:51;;;;;;;2.23;0.77;;;;;;;;;;5104093;28;20111;-63
2023/01/28 15:31:22;;;;;;;0.80;0.60;;;;;;;;;;5107944;28;20355;-62
2023/01/28 15:33:58;;;;;;;1.00;0.70;;;;;;;;;;5108796;28;20462;-63
2023/01/28 15:36:25;;;;;;;2.30;1.37;;;;;;;;;;5108827;28;20034;-62
2023/01/28 15:38:53;;;;;;;1.87;0.83;;;;;;;;;;5108980;28;20097;-62
2023/01/28 15:41:22;;;;;;;1.33;0.80;;;;;;;;;;5107096;28;20034;-63
2023/01/28 15:43:50;;;;;;;28.77;1.60;;;;;;;;;;5103426;28;20461;-63
2023/01/28 15:46:17;;;;;;;0.60;0.50;;;;;;;;;;5103587;28;20023;-62
2023/01/28 15:48:55;;;;;;;0.83;0.60;;;;;;;;;;5103475;28;20035;-63